Terminal Aerodrome Forecast
Issued by NWS Sterling, VA

Home | Current Version | Previous Version | Text Only | Print | Product List | Glossary On
Versions: 1 2 3 4 5 6 7 8 9 10 11 12 13 14 15 16 17 18 19 20 21 22 23 24 25 26 27 28 29 30 31 32 33 34 35 36 37 38 39 40 41 42 43 44 45 46
000
FTUS41 KLWX 211736
TAFIAD
TAF
KIAD 211736Z 2118/2224 01005KT 2SM RA OVC006
      TEMPO 2118/2120 2SM RA BKN004
     FM220000 33011G18KT 5SM -SHRA OVC015
     FM220400 32015KT P6SM BKN050
     FM221200 31012KT P6SM SCT025 BKN050
     FM221400 30014G24KT P6SM BKN050
     FM222100 30019G36KT P6SM SCT250=

USA.gov is the U.S. government's official web portal to all federal, state and local government web resources and services.